메인 페이지
METAR-TAF:

METAR-TAF

공항 :

윌밍턴, 델라웨어, 미국

위도: 39-40-22N, 경도: 075-36-03W, 고도: 24m

현재 날씨관측

예보는 1 시간 1분 전, 17:51시(UTC)에 발표되었습니다.
서북서21kt, 순간 최대 풍속 32kt
온도 10°C
습도 46%
기압 1018 hPa
시정: 16.1km
고도 4100ft 상공 구름 조금

METAR: KILG 231751Z AUTO 30021G32KT 10SM FEW041 10/M01 A3005 RMK AO2 PK WND 31032/1743 SLP175 60000 T01001006 10128 20094 50003

시각: 13:52 (18:52 UTC)

예보

예보는 1 시간 22분 전, 17:30시(UTC)에 발표되었습니다.
예보 대상 시간: 23일 18시부터 24일 18시까지 (UTC)
북서17kt, 순간 최대 풍속 28kt
시정: 10km
고도 4000ft 상공 구름 조금
23일 2300시부터 (UTC)
서북서9kt
시정: 10km
맑음
24일 1400시부터 (UTC)
북북서8kt
시정: 10km
맑음

TAF: KILG 231730Z 2318/2418 32017G28KT P6SM FEW040 FM232300 30009KT P6SM SKC FM241400 34008KT P6SM SKC

4,000개 이상의 공항 관측 자료 및 예보 (METAR 및 TAF 보고).

지도상에서 검색 가능한 기상관측소가 노란 점과 빨간 점으로 표시되어 있습니다.

기상관측소 명을 보려면 표시 위로 마우스를 이동하세요.

날씨 관측과 예보를 보려면 클릭하세요.

지도 변경 : 확대하려면 엑스 표시가 있는 녹색 버튼, 축소하려면 빼기 표시가 있는 녹색 버튼, 다음 페이지의 지도를 보려면 녹색 화살표를 클릭하세요.


METAR-TAF: